sensor_id;sensor_type;location;lat;lon;timestamp;temperature;humidity
12811;DHT22;6470;47.654;7.896;2022-07-06T00:01:38;16.60;99.90
12811;DHT22;6470;47.654;7.896;2022-07-06T00:04:04;15.80;99.90
12811;DHT22;6470;47.654;7.896;2022-07-06T00:06:30;16.70;99.90
12811;DHT22;6470;47.654;7.896;2022-07-06T00:08:56;16.20;99.90
12811;DHT22;6470;47.654;7.896;2022-07-06T00:11:22;16.00;99.90
12811;DHT22;6470;47.654;7.896;2022-07-06T00:13:48;16.20;99.90
12811;DHT22;6470;47.654;7.896;2022-07-06T00:16:14;16.10;99.90
12811;DHT22;6470;47.654;7.896;2022-07-06T00:18:40;15.80;99.90
12811;DHT22;6470;47.654;7.896;2022-07-06T00:21:06;16.20;99.90
12811;DHT22;6470;47.654;7.896;2022-07-06T00:23:31;15.80;99.90
12811;DHT22;6470;47.654;7.896;2022-07-06T00:25:57;15.70;99.90
12811;DHT22;6470;47.654;7.896;2022-07-06T00:28:23;15.80;99.90
12811;DHT22;6470;47.654;7.896;2022-07-06T00:30:49;15.80;99.90
12811;DHT22;6470;47.654;7.896;2022-07-06T00:33:14;16.10;99.90
12811;DHT22;6470;47.654;7.896;2022-07-06T00:35:40;16.20;99.90
12811;DHT22;6470;47.654;7.896;2022-07-06T00:38:06;16.20;99.90
12811;DHT22;6470;47.654;7.896;2022-07-06T00:40:32;15.80;99.90
12811;DHT22;6470;47.654;7.896;2022-07-06T00:42:58;15.80;99.90
12811;DHT22;6470;47.654;7.896;2022-07-06T00:47:49;16.10;99.90
12811;DHT22;6470;47.654;7.896;2022-07-06T00:50:17;15.80;99.90
12811;DHT22;6470;47.654;7.896;2022-07-06T00:52:53;15.60;99.90
12811;DHT22;6470;47.654;7.896;2022-07-06T00:55:24;16.20;99.90
12811;DHT22;6470;47.654;7.896;2022-07-06T00:57:50;12.80;99.90
12811;DHT22;6470;47.654;7.896;2022-07-06T01:00:19;15.60;99.90
12811;DHT22;6470;47.654;7.896;2022-07-06T01:05:12;15.30;99.90
12811;DHT22;6470;47.654;7.896;2022-07-06T01:07:41;15.40;99.90
12811;DHT22;6470;47.654;7.896;2022-07-06T01:10:09;16.10;99.90
12811;DHT22;6470;47.654;7.896;2022-07-06T01:12:36;15.30;99.90
12811;DHT22;6470;47.654;7.896;2022-07-06T01:15:04;15.20;99.90
12811;DHT22;6470;47.654;7.896;2022-07-06T01:17:31;16.10;99.90
12811;DHT22;6470;47.654;7.896;2022-07-06T01:19:57;15.10;99.90
12811;DHT22;6470;47.654;7.896;2022-07-06T01:22:23;16.30;99.90
12811;DHT22;6470;47.654;7.896;2022-07-06T01:24:49;16.10;99.90
12811;DHT22;6470;47.654;7.896;2022-07-06T01:27:14;15.70;99.90
12811;DHT22;6470;47.654;7.896;2022-07-06T01:29:40;12.20;99.90
12811;DHT22;6470;47.654;7.896;2022-07-06T01:32:06;15.00;99.90
12811;DHT22;6470;47.654;7.896;2022-07-06T01:34:32;15.90;99.90
12811;DHT22;6470;47.654;7.896;2022-07-06T01:36:58;15.10;99.90
12811;DHT22;6470;47.654;7.896;2022-07-06T01:39:23;15.70;99.90
12811;DHT22;6470;47.654;7.896;2022-07-06T01:41:49;15.60;99.90
12811;DHT22;6470;47.654;7.896;2022-07-06T01:44:15;15.20;99.90
12811;DHT22;6470;47.654;7.896;2022-07-06T01:46:40;15.10;99.90
12811;DHT22;6470;47.654;7.896;2022-07-06T01:49:06;15.80;99.90
12811;DHT22;6470;47.654;7.896;2022-07-06T01:51:32;14.90;99.90
12811;DHT22;6470;47.654;7.896;2022-07-06T01:56:24;15.10;99.90
12811;DHT22;6470;47.654;7.896;2022-07-06T01:58:50;15.60;99.90
12811;DHT22;6470;47.654;7.896;2022-07-06T02:01:18;14.60;99.90
12811;DHT22;6470;47.654;7.896;2022-07-06T02:03:44;16.00;99.90
12811;DHT22;6470;47.654;7.896;2022-07-06T02:06:11;15.90;99.90
12811;DHT22;6470;47.654;7.896;2022-07-06T02:08:38;16.00;99.90
12811;DHT22;6470;47.654;7.896;2022-07-06T02:11:05;15.00;99.90
12811;DHT22;6470;47.654;7.896;2022-07-06T02:13:31;15.40;99.90
12811;DHT22;6470;47.654;7.896;2022-07-06T02:15:56;15.60;99.90
12811;DHT22;6470;47.654;7.896;2022-07-06T02:18:22;15.60;99.90
12811;DHT22;6470;47.654;7.896;2022-07-06T02:20:48;15.50;99.90
12811;DHT22;6470;47.654;7.896;2022-07-06T02:23:14;15.60;99.90
12811;DHT22;6470;47.654;7.896;2022-07-06T02:25:39;15.40;99.90
12811;DHT22;6470;47.654;7.896;2022-07-06T02:28:05;15.50;99.90
12811;DHT22;6470;47.654;7.896;2022-07-06T02:30:31;16.00;99.90
12811;DHT22;6470;47.654;7.896;2022-07-06T02:32:56;16.00;99.90
12811;DHT22;6470;47.654;7.896;2022-07-06T02:35:22;15.70;99.90
12811;DHT22;6470;47.654;7.896;2022-07-06T02:37:48;14.70;99.90
12811;DHT22;6470;47.654;7.896;2022-07-06T02:40:13;16.50;99.90
12811;DHT22;6470;47.654;7.896;2022-07-06T02:42:39;15.80;99.90
12811;DHT22;6470;47.654;7.896;2022-07-06T02:45:05;14.40;99.90
12811;DHT22;6470;47.654;7.896;2022-07-06T02:47:32;15.50;99.90
12811;DHT22;6470;47.654;7.896;2022-07-06T02:52:23;15.60;99.90
12811;DHT22;6470;47.654;7.896;2022-07-06T02:54:49;15.10;99.90
12811;DHT22;6470;47.654;7.896;2022-07-06T02:57:16;15.50;99.90
12811;DHT22;6470;47.654;7.896;2022-07-06T02:59:42;15.10;99.90
12811;DHT22;6470;47.654;7.896;2022-07-06T03:04:34;15.50;99.90
12811;DHT22;6470;47.654;7.896;2022-07-06T03:07:00;13.80;99.90
12811;DHT22;6470;47.654;7.896;2022-07-06T03:11:52;15.70;99.90
12811;DHT22;6470;47.654;7.896;2022-07-06T03:14:18;16.40;99.90
12811;DHT22;6470;47.654;7.896;2022-07-06T03:16:45;16.40;99.90
12811;DHT22;6470;47.654;7.896;2022-07-06T03:19:11;13.70;99.90
12811;DHT22;6470;47.654;7.896;2022-07-06T03:21:36;15.60;99.90
12811;DHT22;6470;47.654;7.896;2022-07-06T03:24:03;15.20;99.90
12811;DHT22;6470;47.654;7.896;2022-07-06T03:26:29;16.00;99.90
12811;DHT22;6470;47.654;7.896;2022-07-06T03:28:54;13.50;99.90
12811;DHT22;6470;47.654;7.896;2022-07-06T03:31:20;14.90;99.90
12811;DHT22;6470;47.654;7.896;2022-07-06T03:33:46;15.10;99.90
12811;DHT22;6470;47.654;7.896;2022-07-06T03:36:12;13.40;99.90
12811;DHT22;6470;47.654;7.896;2022-07-06T03:38:37;15.80;99.90
12811;DHT22;6470;47.654;7.896;2022-07-06T03:41:03;15.60;99.90
12811;DHT22;6470;47.654;7.896;2022-07-06T03:43:29;16.30;99.90
12811;DHT22;6470;47.654;7.896;2022-07-06T03:45:55;15.60;99.90
12811;DHT22;6470;47.654;7.896;2022-07-06T03:48:21;13.60;99.90
12811;DHT22;6470;47.654;7.896;2022-07-06T03:50:47;15.30;99.90
12811;DHT22;6470;47.654;7.896;2022-07-06T03:53:13;15.30;99.90
12811;DHT22;6470;47.654;7.896;2022-07-06T03:55:38;15.20;99.90
12811;DHT22;6470;47.654;7.896;2022-07-06T03:58:04;15.40;99.90
12811;DHT22;6470;47.654;7.896;2022-07-06T04:00:30;13.40;99.90
12811;DHT22;6470;47.654;7.896;2022-07-06T04:02:55;15.70;99.90
12811;DHT22;6470;47.654;7.896;2022-07-06T04:05:21;13.40;99.90
12811;DHT22;6470;47.654;7.896;2022-07-06T04:07:48;13.60;99.90
12811;DHT22;6470;47.654;7.896;2022-07-06T04:10:15;15.60;99.90
12811;DHT22;6470;47.654;7.896;2022-07-06T04:12:42;16.30;99.90
12811;DHT22;6470;47.654;7.896;2022-07-06T04:15:08;15.20;99.90
12811;DHT22;6470;47.654;7.896;2022-07-06T04:17:33;15.50;99.90
12811;DHT22;6470;47.654;7.896;2022-07-06T04:20:18;13.70;99.90
12811;DHT22;6470;47.654;7.896;2022-07-06T04:22:43;15.40;99.90
12811;DHT22;6470;47.654;7.896;2022-07-06T04:25:09;15.20;99.90
12811;DHT22;6470;47.654;7.896;2022-07-06T04:27:35;15.60;99.90
12811;DHT22;6470;47.654;7.896;2022-07-06T04:30:05;13.70;99.90
12811;DHT22;6470;47.654;7.896;2022-07-06T04:32:31;15.80;99.90
12811;DHT22;6470;47.654;7.896;2022-07-06T04:34:57;13.70;99.90
12811;DHT22;6470;47.654;7.896;2022-07-06T04:37:23;15.70;99.90
12811;DHT22;6470;47.654;7.896;2022-07-06T04:39:48;14.10;99.90
12811;DHT22;6470;47.654;7.896;2022-07-06T04:42:14;16.10;99.90
12811;DHT22;6470;47.654;7.896;2022-07-06T04:44:40;15.30;99.90
12811;DHT22;6470;47.654;7.896;2022-07-06T04:47:06;15.20;99.90
12811;DHT22;6470;47.654;7.896;2022-07-06T04:49:31;15.40;99.90
12811;DHT22;6470;47.654;7.896;2022-07-06T04:51:57;16.20;99.90
12811;DHT22;6470;47.654;7.896;2022-07-06T04:54:23;16.00;99.90
12811;DHT22;6470;47.654;7.896;2022-07-06T04:56:49;15.50;99.90
12811;DHT22;6470;47.654;7.896;2022-07-06T04:59:15;14.50;99.90
12811;DHT22;6470;47.654;7.896;2022-07-06T05:01:41;14.70;99.90
12811;DHT22;6470;47.654;7.896;2022-07-06T05:04:07;14.70;99.90
12811;DHT22;6470;47.654;7.896;2022-07-06T05:08:59;15.40;99.90
12811;DHT22;6470;47.654;7.896;2022-07-06T05:11:26;15.30;99.90
12811;DHT22;6470;47.654;7.896;2022-07-06T05:13:52;15.80;99.90
12811;DHT22;6470;47.654;7.896;2022-07-06T05:16:18;16.90;99.90
12811;DHT22;6470;47.654;7.896;2022-07-06T05:18:43;16.60;99.90
12811;DHT22;6470;47.654;7.896;2022-07-06T05:21:09;16.90;99.90
12811;DHT22;6470;47.654;7.896;2022-07-06T05:23:35;17.10;99.90
12811;DHT22;6470;47.654;7.896;2022-07-06T05:26:00;17.30;99.90
12811;DHT22;6470;47.654;7.896;2022-07-06T05:28:27;17.40;99.90
12811;DHT22;6470;47.654;7.896;2022-07-06T05:30:53;17.50;99.90
12811;DHT22;6470;47.654;7.896;2022-07-06T05:33:18;17.10;99.90
12811;DHT22;6470;47.654;7.896;2022-07-06T05:35:44;16.90;99.90
12811;DHT22;6470;47.654;7.896;2022-07-06T05:40:36;17.50;99.90
12811;DHT22;6470;47.654;7.896;2022-07-06T05:43:03;17.70;99.90
12811;DHT22;6470;47.654;7.896;2022-07-06T05:45:29;17.20;99.90
12811;DHT22;6470;47.654;7.896;2022-07-06T05:50:39;17.60;99.90
12811;DHT22;6470;47.654;7.896;2022-07-06T05:53:06;15.90;99.90
12811;DHT22;6470;47.654;7.896;2022-07-06T05:55:32;17.60;99.90
12811;DHT22;6470;47.654;7.896;2022-07-06T05:57:58;18.30;99.90
12811;DHT22;6470;47.654;7.896;2022-07-06T06:00:25;18.30;99.90
12811;DHT22;6470;47.654;7.896;2022-07-06T06:05:17;19.20;99.90
12811;DHT22;6470;47.654;7.896;2022-07-06T06:07:43;19.10;99.90
12811;DHT22;6470;47.654;7.896;2022-07-06T06:10:11;19.10;99.90
12811;DHT22;6470;47.654;7.896;2022-07-06T06:12:38;18.90;99.90
12811;DHT22;6470;47.654;7.896;2022-07-06T06:15:04;18.90;99.90
12811;DHT22;6470;47.654;7.896;2022-07-06T06:17:31;17.80;99.90
12811;DHT22;6470;47.654;7.896;2022-07-06T06:19:57;18.80;99.90
12811;DHT22;6470;47.654;7.896;2022-07-06T06:22:23;18.00;99.90
12811;DHT22;6470;47.654;7.896;2022-07-06T06:24:49;18.70;99.90
12811;DHT22;6470;47.654;7.896;2022-07-06T06:29:41;19.80;99.90
12811;DHT22;6470;47.654;7.896;2022-07-06T06:34:33;19.80;99.90
12811;DHT22;6470;47.654;7.896;2022-07-06T06:36:59;19.60;99.90
12811;DHT22;6470;47.654;7.896;2022-07-06T06:39:25;19.70;99.90
12811;DHT22;6470;47.654;7.896;2022-07-06T06:41:51;19.80;99.90
12811;DHT22;6470;47.654;7.896;2022-07-06T06:44:17;19.60;99.90
12811;DHT22;6470;47.654;7.896;2022-07-06T06:46:43;20.10;99.90
12811;DHT22;6470;47.654;7.896;2022-07-06T06:56:30;19.70;99.90
12811;DHT22;6470;47.654;7.896;2022-07-06T06:58:56;19.40;99.90
12811;DHT22;6470;47.654;7.896;2022-07-06T07:01:21;20.20;99.90
12811;DHT22;6470;47.654;7.896;2022-07-06T07:03:47;21.20;99.90
12811;DHT22;6470;47.654;7.896;2022-07-06T07:08:39;20.80;99.90
12811;DHT22;6470;47.654;7.896;2022-07-06T07:11:04;20.50;99.90
12811;DHT22;6470;47.654;7.896;2022-07-06T07:13:30;20.90;99.90
12811;DHT22;6470;47.654;7.896;2022-07-06T07:15:56;20.50;99.90
12811;DHT22;6470;47.654;7.896;2022-07-06T07:18:22;20.70;99.90
12811;DHT22;6470;47.654;7.896;2022-07-06T07:20:48;20.50;99.90
12811;DHT22;6470;47.654;7.896;2022-07-06T07:23:14;21.40;99.90
12811;DHT22;6470;47.654;7.896;2022-07-06T07:25:40;21.30;99.90
12811;DHT22;6470;47.654;7.896;2022-07-06T07:28:06;20.80;99.90
12811;DHT22;6470;47.654;7.896;2022-07-06T07:30:31;21.20;99.90
12811;DHT22;6470;47.654;7.896;2022-07-06T07:32:57;20.70;99.90
12811;DHT22;6470;47.654;7.896;2022-07-06T07:35:26;21.40;99.90
12811;DHT22;6470;47.654;7.896;2022-07-06T07:37:52;21.20;99.90
12811;DHT22;6470;47.654;7.896;2022-07-06T07:40:17;21.20;99.90
12811;DHT22;6470;47.654;7.896;2022-07-06T07:42:43;21.50;99.90
12811;DHT22;6470;47.654;7.896;2022-07-06T07:45:11;21.70;99.90
12811;DHT22;6470;47.654;7.896;2022-07-06T07:47:38;21.50;99.90
12811;DHT22;6470;47.654;7.896;2022-07-06T07:50:04;21.70;99.90
12811;DHT22;6470;47.654;7.896;2022-07-06T07:52:30;20.90;99.90
12811;DHT22;6470;47.654;7.896;2022-07-06T07:54:55;21.30;99.90
12811;DHT22;6470;47.654;7.896;2022-07-06T07:57:21;22.40;99.90
12811;DHT22;6470;47.654;7.896;2022-07-06T07:59:47;22.20;99.90
12811;DHT22;6470;47.654;7.896;2022-07-06T08:02:12;21.80;99.90
12811;DHT22;6470;47.654;7.896;2022-07-06T08:04:38;22.00;99.90
12811;DHT22;6470;47.654;7.896;2022-07-06T08:07:04;22.50;99.90
12811;DHT22;6470;47.654;7.896;2022-07-06T08:09:30;22.70;99.90
12811;DHT22;6470;47.654;7.896;2022-07-06T08:11:55;21.80;99.90
12811;DHT22;6470;47.654;7.896;2022-07-06T08:14:22;21.50;99.90
12811;DHT22;6470;47.654;7.896;2022-07-06T08:16:47;22.90;99.90
12811;DHT22;6470;47.654;7.896;2022-07-06T08:21:41;23.10;99.90
12811;DHT22;6470;47.654;7.896;2022-07-06T08:24:07;22.90;99.90
12811;DHT22;6470;47.654;7.896;2022-07-06T08:26:33;23.10;99.90
12811;DHT22;6470;47.654;7.896;2022-07-06T08:28:59;23.60;99.90
12811;DHT22;6470;47.654;7.896;2022-07-06T08:31:25;23.10;99.90
12811;DHT22;6470;47.654;7.896;2022-07-06T08:33:53;24.00;99.90
12811;DHT22;6470;47.654;7.896;2022-07-06T08:36:20;23.30;99.90
12811;DHT22;6470;47.654;7.896;2022-07-06T08:38:46;23.40;99.90
12811;DHT22;6470;47.654;7.896;2022-07-06T08:41:14;23.70;99.90
12811;DHT22;6470;47.654;7.896;2022-07-06T08:43:40;23.70;99.90
12811;DHT22;6470;47.654;7.896;2022-07-06T08:46:07;24.30;99.90
12811;DHT22;6470;47.654;7.896;2022-07-06T08:48:36;23.80;99.90
12811;DHT22;6470;47.654;7.896;2022-07-06T08:51:04;24.40;99.90
12811;DHT22;6470;47.654;7.896;2022-07-06T08:53:30;23.90;99.90
12811;DHT22;6470;47.654;7.896;2022-07-06T08:55:56;21.30;99.90
12811;DHT22;6470;47.654;7.896;2022-07-06T08:58:26;23.90;99.90
12811;DHT22;6470;47.654;7.896;2022-07-06T09:00:56;24.30;99.90
12811;DHT22;6470;47.654;7.896;2022-07-06T09:03:23;24.00;99.90
12811;DHT22;6470;47.654;7.896;2022-07-06T09:05:50;24.40;99.90
12811;DHT22;6470;47.654;7.896;2022-07-06T09:08:18;24.60;99.90
12811;DHT22;6470;47.654;7.896;2022-07-06T09:10:44;24.20;99.90
12811;DHT22;6470;47.654;7.896;2022-07-06T09:13:10;25.60;99.90
12811;DHT22;6470;47.654;7.896;2022-07-06T09:15:37;25.10;99.90
12811;DHT22;6470;47.654;7.896;2022-07-06T09:18:06;24.20;99.90
12811;DHT22;6470;47.654;7.896;2022-07-06T09:20:32;24.20;99.90
12811;DHT22;6470;47.654;7.896;2022-07-06T09:23:00;24.20;99.90
12811;DHT22;6470;47.654;7.896;2022-07-06T09:25:27;24.30;99.90
12811;DHT22;6470;47.654;7.896;2022-07-06T09:27:53;24.10;99.90
12811;DHT22;6470;47.654;7.896;2022-07-06T09:30:24;24.50;99.90
12811;DHT22;6470;47.654;7.896;2022-07-06T09:32:52;24.50;99.90
12811;DHT22;6470;47.654;7.896;2022-07-06T09:35:29;25.20;99.90
12811;DHT22;6470;47.654;7.896;2022-07-06T09:38:06;24.80;99.90
12811;DHT22;6470;47.654;7.896;2022-07-06T09:40:46;24.20;99.90
12811;DHT22;6470;47.654;7.896;2022-07-06T09:45:48;25.20;99.90
12811;DHT22;6470;47.654;7.896;2022-07-06T09:48:19;25.80;99.90
12811;DHT22;6470;47.654;7.896;2022-07-06T09:50:57;26.00;99.90
12811;DHT22;6470;47.654;7.896;2022-07-06T09:53:25;25.20;99.90
12811;DHT22;6470;47.654;7.896;2022-07-06T09:55:53;25.00;99.90
12811;DHT22;6470;47.654;7.896;2022-07-06T10:00:46;25.40;99.90
12811;DHT22;6470;47.654;7.896;2022-07-06T10:03:14;25.10;99.90
12811;DHT22;6470;47.654;7.896;2022-07-06T10:05:46;24.50;99.90
12811;DHT22;6470;47.654;7.896;2022-07-06T10:08:13;25.50;99.90
12811;DHT22;6470;47.654;7.896;2022-07-06T10:10:41;26.40;99.90
12811;DHT22;6470;47.654;7.896;2022-07-06T10:13:08;22.80;99.90
12811;DHT22;6470;47.654;7.896;2022-07-06T10:15:55;25.30;99.90
12811;DHT22;6470;47.654;7.896;2022-07-06T10:18:23;26.00;99.90
12811;DHT22;6470;47.654;7.896;2022-07-06T10:20:49;26.20;99.90
12811;DHT22;6470;47.654;7.896;2022-07-06T10:23:15;25.50;99.90
12811;DHT22;6470;47.654;7.896;2022-07-06T10:25:42;26.00;99.90
12811;DHT22;6470;47.654;7.896;2022-07-06T10:28:09;25.60;99.90
12811;DHT22;6470;47.654;7.896;2022-07-06T10:30:41;25.90;99.90
12811;DHT22;6470;47.654;7.896;2022-07-06T10:33:08;25.90;99.90
12811;DHT22;6470;47.654;7.896;2022-07-06T10:35:34;27.00;99.90
12811;DHT22;6470;47.654;7.896;2022-07-06T10:38:08;26.00;99.90
12811;DHT22;6470;47.654;7.896;2022-07-06T10:40:35;25.80;99.90
12811;DHT22;6470;47.654;7.896;2022-07-06T10:43:20;25.80;99.90
12811;DHT22;6470;47.654;7.896;2022-07-06T10:50:45;26.20;99.90
12811;DHT22;6470;47.654;7.896;2022-07-06T10:53:13;26.30;99.90
12811;DHT22;6470;47.654;7.896;2022-07-06T10:55:46;26.70;99.90
12811;DHT22;6470;47.654;7.896;2022-07-06T10:58:13;26.80;99.90
12811;DHT22;6470;47.654;7.896;2022-07-06T11:00:54;27.00;99.90
12811;DHT22;6470;47.654;7.896;2022-07-06T11:03:42;27.40;99.90
12811;DHT22;6470;47.654;7.896;2022-07-06T11:06:18;27.70;99.90
12811;DHT22;6470;47.654;7.896;2022-07-06T11:14:14;26.90;99.90
12811;DHT22;6470;47.654;7.896;2022-07-06T11:19:15;27.30;99.90
12811;DHT22;6470;47.654;7.896;2022-07-06T11:26:47;28.20;99.90
12811;DHT22;6470;47.654;7.896;2022-07-06T11:29:15;27.70;99.90
12811;DHT22;6470;47.654;7.896;2022-07-06T11:31:47;27.60;99.90
12811;DHT22;6470;47.654;7.896;2022-07-06T11:34:26;27.10;99.90
12811;DHT22;6470;47.654;7.896;2022-07-06T11:37:03;27.70;99.90
12811;DHT22;6470;47.654;7.896;2022-07-06T11:39:30;27.90;99.90
12811;DHT22;6470;47.654;7.896;2022-07-06T11:41:57;28.00;99.90
12811;DHT22;6470;47.654;7.896;2022-07-06T11:44:23;28.00;99.90
12811;DHT22;6470;47.654;7.896;2022-07-06T11:46:50;27.50;99.90
12811;DHT22;6470;47.654;7.896;2022-07-06T11:49:16;27.60;99.90
12811;DHT22;6470;47.654;7.896;2022-07-06T11:51:44;28.00;99.90
12811;DHT22;6470;47.654;7.896;2022-07-06T11:54:15;27.60;99.90
12811;DHT22;6470;47.654;7.896;2022-07-06T11:56:54;28.50;99.90
12811;DHT22;6470;47.654;7.896;2022-07-06T11:59:22;27.90;99.80
12811;DHT22;6470;47.654;7.896;2022-07-06T12:01:48;28.20;99.90
12811;DHT22;6470;47.654;7.896;2022-07-06T12:04:14;28.00;99.60
12811;DHT22;6470;47.654;7.896;2022-07-06T12:06:40;27.90;99.90
12811;DHT22;6470;47.654;7.896;2022-07-06T12:11:34;27.90;99.90
12811;DHT22;6470;47.654;7.896;2022-07-06T12:14:13;27.50;98.30
12811;DHT22;6470;47.654;7.896;2022-07-06T12:16:40;27.20;99.50
12811;DHT22;6470;47.654;7.896;2022-07-06T12:19:06;27.60;98.30
12811;DHT22;6470;47.654;7.896;2022-07-06T12:21:34;27.80;99.20
12811;DHT22;6470;47.654;7.896;2022-07-06T12:24:00;27.00;98.50
12811;DHT22;6470;47.654;7.896;2022-07-06T12:26:27;27.60;98.00
12811;DHT22;6470;47.654;7.896;2022-07-06T12:29:05;27.90;97.90
12811;DHT22;6470;47.654;7.896;2022-07-06T12:31:37;28.00;97.80
12811;DHT22;6470;47.654;7.896;2022-07-06T12:34:04;28.10;97.70
12811;DHT22;6470;47.654;7.896;2022-07-06T12:36:31;27.00;96.50
12811;DHT22;6470;47.654;7.896;2022-07-06T12:38:57;27.50;97.10
12811;DHT22;6470;47.654;7.896;2022-07-06T12:41:31;28.20;98.20
12811;DHT22;6470;47.654;7.896;2022-07-06T12:44:09;28.10;96.70
12811;DHT22;6470;47.654;7.896;2022-07-06T12:46:36;28.40;98.30
12811;DHT22;6470;47.654;7.896;2022-07-06T12:49:10;28.40;96.80
12811;DHT22;6470;47.654;7.896;2022-07-06T12:51:59;27.50;96.70
12811;DHT22;6470;47.654;7.896;2022-07-06T12:54:28;27.50;98.60
12811;DHT22;6470;47.654;7.896;2022-07-06T13:00:14;27.90;98.30
12811;DHT22;6470;47.654;7.896;2022-07-06T13:02:34;27.70;99.70
12811;DHT22;6470;47.654;7.896;2022-07-06T13:05:12;27.80;99.40
12811;DHT22;6470;47.654;7.896;2022-07-06T13:07:47;27.10;95.90
12811;DHT22;6470;47.654;7.896;2022-07-06T13:10:15;27.70;96.40
12811;DHT22;6470;47.654;7.896;2022-07-06T13:12:41;28.00;95.70
12811;DHT22;6470;47.654;7.896;2022-07-06T13:15:08;27.90;95.90
12811;DHT22;6470;47.654;7.896;2022-07-06T13:17:34;28.00;95.50
12811;DHT22;6470;47.654;7.896;2022-07-06T13:20:00;27.50;94.10
12811;DHT22;6470;47.654;7.896;2022-07-06T13:22:26;27.60;94.50
12811;DHT22;6470;47.654;7.896;2022-07-06T13:24:52;27.00;92.50
12811;DHT22;6470;47.654;7.896;2022-07-06T13:27:18;27.40;92.90
12811;DHT22;6470;47.654;7.896;2022-07-06T13:29:44;27.80;94.30
12811;DHT22;6470;47.654;7.896;2022-07-06T13:32:09;28.80;93.80
12811;DHT22;6470;47.654;7.896;2022-07-06T13:34:35;28.60;94.80
12811;DHT22;6470;47.654;7.896;2022-07-06T13:37:02;28.30;95.00
12811;DHT22;6470;47.654;7.896;2022-07-06T13:39:28;29.00;94.10
12811;DHT22;6470;47.654;7.896;2022-07-06T13:41:55;28.90;95.10
12811;DHT22;6470;47.654;7.896;2022-07-06T13:44:20;28.30;95.20
12811;DHT22;6470;47.654;7.896;2022-07-06T13:46:46;28.00;94.80
12811;DHT22;6470;47.654;7.896;2022-07-06T13:49:12;28.80;95.70
12811;DHT22;6470;47.654;7.896;2022-07-06T13:51:38;27.50;94.50
12811;DHT22;6470;47.654;7.896;2022-07-06T13:54:04;27.00;94.50
12811;DHT22;6470;47.654;7.896;2022-07-06T13:56:29;27.60;94.80
12811;DHT22;6470;47.654;7.896;2022-07-06T13:58:55;28.20;96.80
12811;DHT22;6470;47.654;7.896;2022-07-06T14:01:21;27.90;96.30
12811;DHT22;6470;47.654;7.896;2022-07-06T14:03:47;27.70;96.20
12811;DHT22;6470;47.654;7.896;2022-07-06T14:06:13;27.60;96.60
12811;DHT22;6470;47.654;7.896;2022-07-06T14:08:40;27.80;95.80
12811;DHT22;6470;47.654;7.896;2022-07-06T14:11:07;27.90;95.10
12811;DHT22;6470;47.654;7.896;2022-07-06T14:13:33;28.20;95.20
12811;DHT22;6470;47.654;7.896;2022-07-06T14:15:59;27.00;94.40
12811;DHT22;6470;47.654;7.896;2022-07-06T14:18:25;27.00;95.30
12811;DHT22;6470;47.654;7.896;2022-07-06T14:20:52;26.90;95.80
12811;DHT22;6470;47.654;7.896;2022-07-06T14:23:18;27.80;96.10
12811;DHT22;6470;47.654;7.896;2022-07-06T14:25:45;26.80;95.10
12811;DHT22;6470;47.654;7.896;2022-07-06T14:28:11;27.70;95.50
12811;DHT22;6470;47.654;7.896;2022-07-06T14:30:42;27.60;95.70
12811;DHT22;6470;47.654;7.896;2022-07-06T14:33:10;28.30;95.60
12811;DHT22;6470;47.654;7.896;2022-07-06T14:35:42;27.60;96.10
12811;DHT22;6470;47.654;7.896;2022-07-06T14:38:08;25.20;95.20
12811;DHT22;6470;47.654;7.896;2022-07-06T14:40:34;24.30;95.30
12811;DHT22;6470;47.654;7.896;2022-07-06T14:43:00;27.60;97.10
12811;DHT22;6470;47.654;7.896;2022-07-06T14:45:26;28.40;97.50
12811;DHT22;6470;47.654;7.896;2022-07-06T14:47:52;27.50;97.10
12811;DHT22;6470;47.654;7.896;2022-07-06T14:50:19;27.50;96.50
12811;DHT22;6470;47.654;7.896;2022-07-06T14:52:45;27.50;97.20
12811;DHT22;6470;47.654;7.896;2022-07-06T14:55:11;26.70;96.90
12811;DHT22;6470;47.654;7.896;2022-07-06T15:00:04;27.60;97.20
12811;DHT22;6470;47.654;7.896;2022-07-06T15:02:30;26.70;97.90
12811;DHT22;6470;47.654;7.896;2022-07-06T15:04:56;26.70;97.50
12811;DHT22;6470;47.654;7.896;2022-07-06T15:07:22;26.90;97.90
12811;DHT22;6470;47.654;7.896;2022-07-06T15:09:48;27.10;98.50
12811;DHT22;6470;47.654;7.896;2022-07-06T15:12:13;26.50;97.20
12811;DHT22;6470;47.654;7.896;2022-07-06T15:14:39;26.90;97.40
12811;DHT22;6470;47.654;7.896;2022-07-06T15:17:05;26.90;98.10
12811;DHT22;6470;47.654;7.896;2022-07-06T15:19:31;27.30;98.80
12811;DHT22;6470;47.654;7.896;2022-07-06T15:21:56;27.10;98.90
12811;DHT22;6470;47.654;7.896;2022-07-06T15:24:22;27.30;98.70
12811;DHT22;6470;47.654;7.896;2022-07-06T15:26:50;27.20;99.10
12811;DHT22;6470;47.654;7.896;2022-07-06T15:29:15;27.10;99.30
12811;DHT22;6470;47.654;7.896;2022-07-06T15:31:41;26.90;98.40
12811;DHT22;6470;47.654;7.896;2022-07-06T15:36:33;26.50;98.90
12811;DHT22;6470;47.654;7.896;2022-07-06T15:38:59;26.60;99.10
12811;DHT22;6470;47.654;7.896;2022-07-06T15:41:25;27.60;99.20
12811;DHT22;6470;47.654;7.896;2022-07-06T15:43:50;27.70;98.50
12811;DHT22;6470;47.654;7.896;2022-07-06T15:46:17;26.70;98.40
12811;DHT22;6470;47.654;7.896;2022-07-06T15:48:43;27.30;98.90
12811;DHT22;6470;47.654;7.896;2022-07-06T15:51:08;26.90;98.90
12811;DHT22;6470;47.654;7.896;2022-07-06T15:53:34;26.40;99.70
12811;DHT22;6470;47.654;7.896;2022-07-06T15:58:26;26.60;99.90
12811;DHT22;6470;47.654;7.896;2022-07-06T16:00:52;26.80;99.90
12811;DHT22;6470;47.654;7.896;2022-07-06T16:03:18;25.90;99.90
12811;DHT22;6470;47.654;7.896;2022-07-06T16:05:44;26.70;99.90
12811;DHT22;6470;47.654;7.896;2022-07-06T16:08:10;25.70;99.80
12811;DHT22;6470;47.654;7.896;2022-07-06T16:10:36;24.90;99.90
12811;DHT22;6470;47.654;7.896;2022-07-06T16:13:02;26.10;99.90
12811;DHT22;6470;47.654;7.896;2022-07-06T16:15:29;26.20;99.90
12811;DHT22;6470;47.654;7.896;2022-07-06T16:17:54;22.80;99.40
12811;DHT22;6470;47.654;7.896;2022-07-06T16:20:20;26.20;99.90
12811;DHT22;6470;47.654;7.896;2022-07-06T16:22:46;25.90;99.90
12811;DHT22;6470;47.654;7.896;2022-07-06T16:25:15;26.50;99.90
12811;DHT22;6470;47.654;7.896;2022-07-06T16:27:42;25.80;99.90
12811;DHT22;6470;47.654;7.896;2022-07-06T16:30:09;25.60;99.90
12811;DHT22;6470;47.654;7.896;2022-07-06T16:32:35;25.50;99.90
12811;DHT22;6470;47.654;7.896;2022-07-06T16:35:01;24.60;99.90
12811;DHT22;6470;47.654;7.896;2022-07-06T16:37:27;25.40;99.90
12811;DHT22;6470;47.654;7.896;2022-07-06T16:39:53;25.40;99.90
12811;DHT22;6470;47.654;7.896;2022-07-06T16:42:19;26.00;99.90
12811;DHT22;6470;47.654;7.896;2022-07-06T16:44:45;24.70;99.90
12811;DHT22;6470;47.654;7.896;2022-07-06T16:47:12;24.00;99.90
12811;DHT22;6470;47.654;7.896;2022-07-06T16:49:38;24.80;99.90
12811;DHT22;6470;47.654;7.896;2022-07-06T16:52:05;24.70;99.90
12811;DHT22;6470;47.654;7.896;2022-07-06T16:54:30;24.50;99.90
12811;DHT22;6470;47.654;7.896;2022-07-06T16:56:56;24.90;99.90
12811;DHT22;6470;47.654;7.896;2022-07-06T16:59:22;24.50;99.90
12811;DHT22;6470;47.654;7.896;2022-07-06T17:01:48;24.30;99.90